sensor_id;sensor_type;location;lat;lon;timestamp;temperature;humidity
45339;DHT22;31071;51.478;5.710;2023-04-03T00:00:54;1.10;99.90
45339;DHT22;31071;51.478;5.710;2023-04-03T00:03:20;1.10;99.90
45339;DHT22;31071;51.478;5.710;2023-04-03T00:05:46;1.10;99.90
45339;DHT22;31071;51.478;5.710;2023-04-03T00:08:11;1.10;99.90
45339;DHT22;31071;51.478;5.710;2023-04-03T00:10:37;1.10;99.90
45339;DHT22;31071;51.478;5.710;2023-04-03T00:13:04;1.00;99.90
45339;DHT22;31071;51.478;5.710;2023-04-03T00:15:30;0.90;99.90
45339;DHT22;31071;51.478;5.710;2023-04-03T00:17:56;0.80;99.90
45339;DHT22;31071;51.478;5.710;2023-04-03T00:20:22;0.70;99.90
45339;DHT22;31071;51.478;5.710;2023-04-03T00:22:47;0.80;99.90
45339;DHT22;31071;51.478;5.710;2023-04-03T00:25:13;0.70;99.90
45339;DHT22;31071;51.478;5.710;2023-04-03T00:27:39;0.80;99.90
45339;DHT22;31071;51.478;5.710;2023-04-03T00:30:07;0.60;99.90
45339;DHT22;31071;51.478;5.710;2023-04-03T00:32:33;0.70;99.90
45339;DHT22;31071;51.478;5.710;2023-04-03T00:34:59;0.60;99.90
45339;DHT22;31071;51.478;5.710;2023-04-03T00:37:24;0.70;99.90
45339;DHT22;31071;51.478;5.710;2023-04-03T00:39:50;0.70;99.90
45339;DHT22;31071;51.478;5.710;2023-04-03T00:42:16;0.60;99.90
45339;DHT22;31071;51.478;5.710;2023-04-03T00:47:09;0.70;99.90
45339;DHT22;31071;51.478;5.710;2023-04-03T00:49:37;0.80;99.90
45339;DHT22;31071;51.478;5.710;2023-04-03T00:52:05;0.90;99.90
45339;DHT22;31071;51.478;5.710;2023-04-03T00:54:32;0.90;99.90
45339;DHT22;31071;51.478;5.710;2023-04-03T00:56:58;0.90;99.90
45339;DHT22;31071;51.478;5.710;2023-04-03T00:59:32;0.80;99.90
45339;DHT22;31071;51.478;5.710;2023-04-03T01:01:59;0.70;99.90
45339;DHT22;31071;51.478;5.710;2023-04-03T01:04:37;0.70;99.90
45339;DHT22;31071;51.478;5.710;2023-04-03T01:07:16;0.80;99.90
45339;DHT22;31071;51.478;5.710;2023-04-03T01:09:44;0.70;99.90
45339;DHT22;31071;51.478;5.710;2023-04-03T01:12:15;0.70;99.90
45339;DHT22;31071;51.478;5.710;2023-04-03T01:14:43;0.80;99.90
45339;DHT22;31071;51.478;5.710;2023-04-03T01:17:31;0.80;99.90
45339;DHT22;31071;51.478;5.710;2023-04-03T01:25:43;0.80;99.90
45339;DHT22;31071;51.478;5.710;2023-04-03T01:28:13;0.80;99.90
45339;DHT22;31071;51.478;5.710;2023-04-03T01:30:45;0.80;99.90
45339;DHT22;31071;51.478;5.710;2023-04-03T01:33:12;0.70;99.90
45339;DHT22;31071;51.478;5.710;2023-04-03T01:35:38;0.80;99.90
45339;DHT22;31071;51.478;5.710;2023-04-03T01:38:03;0.80;99.90
45339;DHT22;31071;51.478;5.710;2023-04-03T01:40:29;0.80;99.90
45339;DHT22;31071;51.478;5.710;2023-04-03T01:42:54;0.80;99.90
45339;DHT22;31071;51.478;5.710;2023-04-03T01:45:20;0.80;99.90
45339;DHT22;31071;51.478;5.710;2023-04-03T01:47:46;0.80;99.90
45339;DHT22;31071;51.478;5.710;2023-04-03T01:50:11;0.80;99.90
45339;DHT22;31071;51.478;5.710;2023-04-03T01:52:37;0.90;99.90
45339;DHT22;31071;51.478;5.710;2023-04-03T01:55:02;0.90;99.90
45339;DHT22;31071;51.478;5.710;2023-04-03T01:57:28;0.90;99.90
45339;DHT22;31071;51.478;5.710;2023-04-03T01:59:53;0.90;99.90
45339;DHT22;31071;51.478;5.710;2023-04-03T02:02:19;0.90;99.90
45339;DHT22;31071;51.478;5.710;2023-04-03T02:04:45;0.90;99.90
45339;DHT22;31071;51.478;5.710;2023-04-03T02:07:11;0.90;99.90
45339;DHT22;31071;51.478;5.710;2023-04-03T02:09:36;0.90;99.90
45339;DHT22;31071;51.478;5.710;2023-04-03T02:12:02;0.90;99.90
45339;DHT22;31071;51.478;5.710;2023-04-03T02:14:28;0.90;99.90
45339;DHT22;31071;51.478;5.710;2023-04-03T02:16:54;0.90;99.90
45339;DHT22;31071;51.478;5.710;2023-04-03T02:19:19;0.90;99.90
45339;DHT22;31071;51.478;5.710;2023-04-03T02:21:45;0.90;99.90
45339;DHT22;31071;51.478;5.710;2023-04-03T02:24:10;0.90;99.90
45339;DHT22;31071;51.478;5.710;2023-04-03T02:26:36;1.20;99.90
45339;DHT22;31071;51.478;5.710;2023-04-03T02:29:01;0.80;99.90
45339;DHT22;31071;51.478;5.710;2023-04-03T02:31:28;0.70;99.90
45339;DHT22;31071;51.478;5.710;2023-04-03T02:33:53;0.70;99.90
45339;DHT22;31071;51.478;5.710;2023-04-03T02:36:19;0.70;99.90
45339;DHT22;31071;51.478;5.710;2023-04-03T02:38:44;0.70;99.90
45339;DHT22;31071;51.478;5.710;2023-04-03T02:41:11;0.70;99.90
45339;DHT22;31071;51.478;5.710;2023-04-03T02:43:37;0.70;99.90
45339;DHT22;31071;51.478;5.710;2023-04-03T02:46:03;0.70;99.90
45339;DHT22;31071;51.478;5.710;2023-04-03T02:48:29;0.70;99.90
45339;DHT22;31071;51.478;5.710;2023-04-03T02:50:55;0.70;99.90
45339;DHT22;31071;51.478;5.710;2023-04-03T02:53:20;0.70;99.90
45339;DHT22;31071;51.478;5.710;2023-04-03T02:55:46;0.70;99.90
45339;DHT22;31071;51.478;5.710;2023-04-03T02:58:12;0.80;99.90
45339;DHT22;31071;51.478;5.710;2023-04-03T03:00:37;0.70;99.90
45339;DHT22;31071;51.478;5.710;2023-04-03T03:03:03;0.70;99.90
45339;DHT22;31071;51.478;5.710;2023-04-03T03:05:29;0.70;99.90
45339;DHT22;31071;51.478;5.710;2023-04-03T03:07:55;0.70;99.90
45339;DHT22;31071;51.478;5.710;2023-04-03T03:10:21;0.70;99.90
45339;DHT22;31071;51.478;5.710;2023-04-03T03:12:47;0.70;99.90
45339;DHT22;31071;51.478;5.710;2023-04-03T03:15:13;0.80;99.90
45339;DHT22;31071;51.478;5.710;2023-04-03T03:17:38;0.80;99.90
45339;DHT22;31071;51.478;5.710;2023-04-03T03:20:05;0.80;99.90
45339;DHT22;31071;51.478;5.710;2023-04-03T03:22:31;0.80;99.90
45339;DHT22;31071;51.478;5.710;2023-04-03T03:24:56;0.70;99.90
45339;DHT22;31071;51.478;5.710;2023-04-03T03:27:22;0.70;99.90
45339;DHT22;31071;51.478;5.710;2023-04-03T03:29:47;0.70;99.90
45339;DHT22;31071;51.478;5.710;2023-04-03T03:32:13;0.70;99.90
45339;DHT22;31071;51.478;5.710;2023-04-03T03:34:38;0.70;99.90
45339;DHT22;31071;51.478;5.710;2023-04-03T03:37:04;0.80;99.90
45339;DHT22;31071;51.478;5.710;2023-04-03T03:39:30;0.70;99.90
45339;DHT22;31071;51.478;5.710;2023-04-03T03:41:55;0.80;99.90
45339;DHT22;31071;51.478;5.710;2023-04-03T03:44:21;0.80;99.90
45339;DHT22;31071;51.478;5.710;2023-04-03T03:46:47;0.80;99.90
45339;DHT22;31071;51.478;5.710;2023-04-03T03:49:12;0.80;99.90
45339;DHT22;31071;51.478;5.710;2023-04-03T03:51:38;0.70;99.90
45339;DHT22;31071;51.478;5.710;2023-04-03T03:54:05;0.70;99.90
45339;DHT22;31071;51.478;5.710;2023-04-03T03:56:30;0.70;99.90
45339;DHT22;31071;51.478;5.710;2023-04-03T03:58:56;0.70;99.90
45339;DHT22;31071;51.478;5.710;2023-04-03T04:01:23;0.70;99.90
45339;DHT22;31071;51.478;5.710;2023-04-03T04:03:48;0.70;99.90
45339;DHT22;31071;51.478;5.710;2023-04-03T04:06:15;0.70;99.90
45339;DHT22;31071;51.478;5.710;2023-04-03T04:08:40;0.70;99.90
45339;DHT22;31071;51.478;5.710;2023-04-03T04:11:06;0.60;99.90
45339;DHT22;31071;51.478;5.710;2023-04-03T04:13:32;0.60;99.90
45339;DHT22;31071;51.478;5.710;2023-04-03T04:15:58;0.60;99.90
45339;DHT22;31071;51.478;5.710;2023-04-03T04:18:23;0.60;99.90
45339;DHT22;31071;51.478;5.710;2023-04-03T04:20:49;0.60;99.90
45339;DHT22;31071;51.478;5.710;2023-04-03T04:23:16;0.60;99.90
45339;DHT22;31071;51.478;5.710;2023-04-03T04:25:44;0.60;99.90
45339;DHT22;31071;51.478;5.710;2023-04-03T04:28:10;0.50;99.90
45339;DHT22;31071;51.478;5.710;2023-04-03T04:30:36;0.60;99.90
45339;DHT22;31071;51.478;5.710;2023-04-03T04:33:01;0.50;99.90
45339;DHT22;31071;51.478;5.710;2023-04-03T04:35:27;0.50;99.90
45339;DHT22;31071;51.478;5.710;2023-04-03T04:37:52;0.50;99.90
45339;DHT22;31071;51.478;5.710;2023-04-03T04:40:18;0.50;99.90
45339;DHT22;31071;51.478;5.710;2023-04-03T04:42:43;0.50;99.90
45339;DHT22;31071;51.478;5.710;2023-04-03T04:45:09;0.40;99.90
45339;DHT22;31071;51.478;5.710;2023-04-03T04:47:35;0.40;99.90
45339;DHT22;31071;51.478;5.710;2023-04-03T04:50:00;0.40;99.90
45339;DHT22;31071;51.478;5.710;2023-04-03T04:52:26;0.50;99.90
45339;DHT22;31071;51.478;5.710;2023-04-03T04:54:51;0.50;99.90
45339;DHT22;31071;51.478;5.710;2023-04-03T04:57:17;0.40;99.90
45339;DHT22;31071;51.478;5.710;2023-04-03T04:59:43;0.50;99.90
45339;DHT22;31071;51.478;5.710;2023-04-03T05:02:08;0.50;99.90
45339;DHT22;31071;51.478;5.710;2023-04-03T05:04:34;0.50;99.90
45339;DHT22;31071;51.478;5.710;2023-04-03T05:06:59;0.60;99.90
45339;DHT22;31071;51.478;5.710;2023-04-03T05:09:25;0.60;99.90
45339;DHT22;31071;51.478;5.710;2023-04-03T05:11:50;0.60;99.90
45339;DHT22;31071;51.478;5.710;2023-04-03T05:14:16;0.60;99.90
45339;DHT22;31071;51.478;5.710;2023-04-03T05:16:42;0.60;99.90
45339;DHT22;31071;51.478;5.710;2023-04-03T05:19:07;0.60;99.90
45339;DHT22;31071;51.478;5.710;2023-04-03T05:21:33;0.70;99.90
45339;DHT22;31071;51.478;5.710;2023-04-03T05:23:59;0.80;99.90
45339;DHT22;31071;51.478;5.710;2023-04-03T05:26:28;0.70;99.90
45339;DHT22;31071;51.478;5.710;2023-04-03T05:28:54;0.80;99.90
45339;DHT22;31071;51.478;5.710;2023-04-03T05:31:20;0.80;99.90
45339;DHT22;31071;51.478;5.710;2023-04-03T05:33:45;0.90;99.90
45339;DHT22;31071;51.478;5.710;2023-04-03T05:36:12;0.90;99.90
45339;DHT22;31071;51.478;5.710;2023-04-03T05:38:38;1.00;99.90
45339;DHT22;31071;51.478;5.710;2023-04-03T05:41:04;1.00;99.90
45339;DHT22;31071;51.478;5.710;2023-04-03T05:43:30;1.20;99.90
45339;DHT22;31071;51.478;5.710;2023-04-03T05:45:56;1.10;99.90
45339;DHT22;31071;51.478;5.710;2023-04-03T05:48:21;1.20;99.90
45339;DHT22;31071;51.478;5.710;2023-04-03T05:50:47;1.20;99.90
45339;DHT22;31071;51.478;5.710;2023-04-03T05:53:21;1.20;99.90
45339;DHT22;31071;51.478;5.710;2023-04-03T05:55:47;1.20;99.90
45339;DHT22;31071;51.478;5.710;2023-04-03T05:58:13;1.20;99.90
45339;DHT22;31071;51.478;5.710;2023-04-03T06:00:39;1.30;99.90
45339;DHT22;31071;51.478;5.710;2023-04-03T06:03:05;1.40;99.90
45339;DHT22;31071;51.478;5.710;2023-04-03T06:05:31;1.40;99.90
45339;DHT22;31071;51.478;5.710;2023-04-03T06:07:57;1.50;99.90
45339;DHT22;31071;51.478;5.710;2023-04-03T06:10:23;1.50;99.90
45339;DHT22;31071;51.478;5.710;2023-04-03T06:12:49;1.60;99.90
45339;DHT22;31071;51.478;5.710;2023-04-03T06:15:15;1.60;99.90
45339;DHT22;31071;51.478;5.710;2023-04-03T06:17:42;1.70;99.90
45339;DHT22;31071;51.478;5.710;2023-04-03T06:20:08;1.80;99.90
45339;DHT22;31071;51.478;5.710;2023-04-03T06:22:35;2.00;99.90
45339;DHT22;31071;51.478;5.710;2023-04-03T06:25:00;2.00;99.90
45339;DHT22;31071;51.478;5.710;2023-04-03T06:27:27;2.10;99.90
45339;DHT22;31071;51.478;5.710;2023-04-03T06:29:52;2.20;99.90
45339;DHT22;31071;51.478;5.710;2023-04-03T06:32:18;3.00;99.90
45339;DHT22;31071;51.478;5.710;2023-04-03T06:34:43;2.70;99.90
45339;DHT22;31071;51.478;5.710;2023-04-03T06:37:15;2.90;99.90
45339;DHT22;31071;51.478;5.710;2023-04-03T06:39:42;3.10;99.90
45339;DHT22;31071;51.478;5.710;2023-04-03T06:42:07;3.40;99.90
45339;DHT22;31071;51.478;5.710;2023-04-03T06:44:33;3.40;99.90
45339;DHT22;31071;51.478;5.710;2023-04-03T06:46:59;3.40;99.90
45339;DHT22;31071;51.478;5.710;2023-04-03T06:49:25;3.50;99.90
45339;DHT22;31071;51.478;5.710;2023-04-03T06:51:51;3.60;99.90
45339;DHT22;31071;51.478;5.710;2023-04-03T06:54:17;3.80;99.90
45339;DHT22;31071;51.478;5.710;2023-04-03T06:56:42;3.90;99.90
45339;DHT22;31071;51.478;5.710;2023-04-03T06:59:10;4.00;99.90
45339;DHT22;31071;51.478;5.710;2023-04-03T07:01:35;4.00;99.90
45339;DHT22;31071;51.478;5.710;2023-04-03T07:04:01;4.10;99.90
45339;DHT22;31071;51.478;5.710;2023-04-03T07:06:26;4.50;99.90
45339;DHT22;31071;51.478;5.710;2023-04-03T07:08:52;5.30;99.90
45339;DHT22;31071;51.478;5.710;2023-04-03T07:11:22;5.70;99.90
45339;DHT22;31071;51.478;5.710;2023-04-03T07:13:47;5.50;99.90
45339;DHT22;31071;51.478;5.710;2023-04-03T07:16:13;5.50;99.90
45339;DHT22;31071;51.478;5.710;2023-04-03T07:18:39;5.60;99.90
45339;DHT22;31071;51.478;5.710;2023-04-03T07:21:04;5.90;99.90
45339;DHT22;31071;51.478;5.710;2023-04-03T07:23:30;6.40;99.90
45339;DHT22;31071;51.478;5.710;2023-04-03T07:25:56;6.20;99.90
45339;DHT22;31071;51.478;5.710;2023-04-03T07:28:22;5.90;99.90
45339;DHT22;31071;51.478;5.710;2023-04-03T07:30:53;5.70;99.90
45339;DHT22;31071;51.478;5.710;2023-04-03T07:33:21;6.20;99.90
45339;DHT22;31071;51.478;5.710;2023-04-03T07:35:47;6.40;99.90
45339;DHT22;31071;51.478;5.710;2023-04-03T07:38:12;6.60;99.90
45339;DHT22;31071;51.478;5.710;2023-04-03T07:40:38;6.60;99.90
45339;DHT22;31071;51.478;5.710;2023-04-03T07:43:05;6.30;99.90
45339;DHT22;31071;51.478;5.710;2023-04-03T07:45:31;6.00;99.90
45339;DHT22;31071;51.478;5.710;2023-04-03T07:47:57;5.80;99.90
45339;DHT22;31071;51.478;5.710;2023-04-03T07:50:23;5.90;99.90
45339;DHT22;31071;51.478;5.710;2023-04-03T07:52:49;6.30;99.90
45339;DHT22;31071;51.478;5.710;2023-04-03T07:55:16;7.30;99.90
45339;DHT22;31071;51.478;5.710;2023-04-03T07:57:42;7.60;99.00
45339;DHT22;31071;51.478;5.710;2023-04-03T08:00:08;8.50;97.10
45339;DHT22;31071;51.478;5.710;2023-04-03T08:02:34;9.40;95.50
45339;DHT22;31071;51.478;5.710;2023-04-03T08:05:00;9.30;93.70
45339;DHT22;31071;51.478;5.710;2023-04-03T08:07:25;8.60;94.90
45339;DHT22;31071;51.478;5.710;2023-04-03T08:09:51;8.40;94.90
45339;DHT22;31071;51.478;5.710;2023-04-03T08:12:17;8.90;93.40
45339;DHT22;31071;51.478;5.710;2023-04-03T08:14:43;9.00;92.10
45339;DHT22;31071;51.478;5.710;2023-04-03T08:17:09;8.60;93.70
45339;DHT22;31071;51.478;5.710;2023-04-03T08:19:39;9.30;94.50
45339;DHT22;31071;51.478;5.710;2023-04-03T08:22:04;10.50;91.00
45339;DHT22;31071;51.478;5.710;2023-04-03T08:24:34;10.10;90.00
45339;DHT22;31071;51.478;5.710;2023-04-03T08:27:00;10.00;90.00
45339;DHT22;31071;51.478;5.710;2023-04-03T08:29:26;10.30;87.70
45339;DHT22;31071;51.478;5.710;2023-04-03T08:31:52;10.60;83.40
45339;DHT22;31071;51.478;5.710;2023-04-03T08:34:18;10.40;82.50
45339;DHT22;31071;51.478;5.710;2023-04-03T08:36:44;10.20;82.50
45339;DHT22;31071;51.478;5.710;2023-04-03T08:39:10;10.90;80.70
45339;DHT22;31071;51.478;5.710;2023-04-03T08:41:38;11.70;76.60
45339;DHT22;31071;51.478;5.710;2023-04-03T08:44:25;12.10;74.90
45339;DHT22;31071;51.478;5.710;2023-04-03T08:46:54;11.90;73.30
45339;DHT22;31071;51.478;5.710;2023-04-03T08:49:30;11.70;69.20
45339;DHT22;31071;51.478;5.710;2023-04-03T08:51:58;11.90;73.30
45339;DHT22;31071;51.478;5.710;2023-04-03T08:54:31;13.70;72.90
45339;DHT22;31071;51.478;5.710;2023-04-03T08:57:02;14.60;64.60
45339;DHT22;31071;51.478;5.710;2023-04-03T08:59:32;15.40;58.90
45339;DHT22;31071;51.478;5.710;2023-04-03T09:02:01;15.60;55.90
45339;DHT22;31071;51.478;5.710;2023-04-03T09:04:31;15.20;53.50
45339;DHT22;31071;51.478;5.710;2023-04-03T09:07:04;15.20;54.40
45339;DHT22;31071;51.478;5.710;2023-04-03T09:09:36;15.30;54.70
45339;DHT22;31071;51.478;5.710;2023-04-03T09:12:23;15.40;55.20
45339;DHT22;31071;51.478;5.710;2023-04-03T09:15:02;15.40;51.40
45339;DHT22;31071;51.478;5.710;2023-04-03T09:23:37;15.20;51.20
45339;DHT22;31071;51.478;5.710;2023-04-03T09:26:09;15.20;52.80
45339;DHT22;31071;51.478;5.710;2023-04-03T09:28:40;15.90;52.50
45339;DHT22;31071;51.478;5.710;2023-04-03T09:31:28;15.40;49.90
45339;DHT22;31071;51.478;5.710;2023-04-03T09:33:59;14.70;53.00
45339;DHT22;31071;51.478;5.710;2023-04-03T09:36:47;14.80;49.00
45339;DHT22;31071;51.478;5.710;2023-04-03T09:39:19;15.10;51.90
45339;DHT22;31071;51.478;5.710;2023-04-03T09:44:40;16.30;49.90
45339;DHT22;31071;51.478;5.710;2023-04-03T09:47:30;17.20;46.60
45339;DHT22;31071;51.478;5.710;2023-04-03T09:52:40;18.30;42.40
45339;DHT22;31071;51.478;5.710;2023-04-03T09:55:13;18.80;43.60
45339;DHT22;31071;51.478;5.710;2023-04-03T09:57:39;19.40;42.60
45339;DHT22;31071;51.478;5.710;2023-04-03T10:00:05;19.90;40.80
45339;DHT22;31071;51.478;5.710;2023-04-03T10:02:40;19.20;40.30
45339;DHT22;31071;51.478;5.710;2023-04-03T10:05:35;18.50;35.60
45339;DHT22;31071;51.478;5.710;2023-04-03T10:08:08;18.10;39.30
45339;DHT22;31071;51.478;5.710;2023-04-03T10:10:34;18.00;40.30
45339;DHT22;31071;51.478;5.710;2023-04-03T10:13:11;18.70;37.50
45339;DHT22;31071;51.478;5.710;2023-04-03T10:15:57;19.00;40.00
45339;DHT22;31071;51.478;5.710;2023-04-03T10:18:32;19.20;39.50
45339;DHT22;31071;51.478;5.710;2023-04-03T10:23:49;18.90;36.30
45339;DHT22;31071;51.478;5.710;2023-04-03T10:29:32;17.70;37.40
45339;DHT22;31071;51.478;5.710;2023-04-03T10:32:35;17.90;38.50
45339;DHT22;31071;51.478;5.710;2023-04-03T10:43:09;20.90;36.70
45339;DHT22;31071;51.478;5.710;2023-04-03T10:46:02;20.40;31.90
45339;DHT22;31071;51.478;5.710;2023-04-03T10:48:51;19.40;36.90
45339;DHT22;31071;51.478;5.710;2023-04-03T10:51:43;19.90;34.80
45339;DHT22;31071;51.478;5.710;2023-04-03T10:54:26;21.00;35.50
45339;DHT22;31071;51.478;5.710;2023-04-03T10:56:56;21.70;35.70
45339;DHT22;31071;51.478;5.710;2023-04-03T10:59:47;21.10;32.20
45339;DHT22;31071;51.478;5.710;2023-04-03T11:02:36;20.50;32.60
45339;DHT22;31071;51.478;5.710;2023-04-03T11:07:53;20.10;34.60
45339;DHT22;31071;51.478;5.710;2023-04-03T11:10:25;20.60;34.90
45339;DHT22;31071;51.478;5.710;2023-04-03T11:12:58;19.60;32.00
45339;DHT22;31071;51.478;5.710;2023-04-03T11:15:30;20.00;33.60
45339;DHT22;31071;51.478;5.710;2023-04-03T11:18:10;20.10;33.40
45339;DHT22;31071;51.478;5.710;2023-04-03T11:20:38;20.30;33.80
45339;DHT22;31071;51.478;5.710;2023-04-03T11:23:29;20.30;33.20
45339;DHT22;31071;51.478;5.710;2023-04-03T11:26:11;20.10;31.50
45339;DHT22;31071;51.478;5.710;2023-04-03T11:28:38;20.00;33.30
45339;DHT22;31071;51.478;5.710;2023-04-03T11:36:48;21.90;32.10
45339;DHT22;31071;51.478;5.710;2023-04-03T11:39:34;21.30;33.10
45339;DHT22;31071;51.478;5.710;2023-04-03T11:42:22;20.90;32.20
45339;DHT22;31071;51.478;5.710;2023-04-03T11:44:50;19.80;31.60
45339;DHT22;31071;51.478;5.710;2023-04-03T11:47:45;20.30;34.70
45339;DHT22;31071;51.478;5.710;2023-04-03T11:53:25;19.90;31.10
45339;DHT22;31071;51.478;5.710;2023-04-03T11:58:22;20.00;34.40
45339;DHT22;31071;51.478;5.710;2023-04-03T12:05:52;20.80;31.50
45339;DHT22;31071;51.478;5.710;2023-04-03T12:08:29;21.20;33.10
45339;DHT22;31071;51.478;5.710;2023-04-03T12:21:22;19.20;30.50
45339;DHT22;31071;51.478;5.710;2023-04-03T12:29:25;19.90;32.20
45339;DHT22;31071;51.478;5.710;2023-04-03T12:35:34;20.00;33.00
45339;DHT22;31071;51.478;5.710;2023-04-03T12:51:14;19.90;33.40
45339;DHT22;31071;51.478;5.710;2023-04-03T12:53:40;19.50;34.60
45339;DHT22;31071;51.478;5.710;2023-04-03T12:56:23;19.90;33.20
45339;DHT22;31071;51.478;5.710;2023-04-03T12:58:50;20.80;34.00
45339;DHT22;31071;51.478;5.710;2023-04-03T13:01:20;21.30;32.00
45339;DHT22;31071;51.478;5.710;2023-04-03T13:03:55;20.50;32.60
45339;DHT22;31071;51.478;5.710;2023-04-03T13:06:30;20.10;33.90
45339;DHT22;31071;51.478;5.710;2023-04-03T13:08:59;19.90;33.90
45339;DHT22;31071;51.478;5.710;2023-04-03T13:11:31;20.20;34.50
45339;DHT22;31071;51.478;5.710;2023-04-03T13:14:04;20.30;33.20
45339;DHT22;31071;51.478;5.710;2023-04-03T13:16:31;20.00;34.20
45339;DHT22;31071;51.478;5.710;2023-04-03T13:18:57;20.60;32.80
45339;DHT22;31071;51.478;5.710;2023-04-03T13:21:29;20.50;33.90
45339;DHT22;31071;51.478;5.710;2023-04-03T13:23:58;20.50;32.20
45339;DHT22;31071;51.478;5.710;2023-04-03T13:26:27;20.30;34.50
45339;DHT22;31071;51.478;5.710;2023-04-03T13:28:55;19.60;34.50
45339;DHT22;31071;51.478;5.710;2023-04-03T13:31:30;19.60;34.50
45339;DHT22;31071;51.478;5.710;2023-04-03T13:34:17;20.30;34.70
45339;DHT22;31071;51.478;5.710;2023-04-03T13:36:54;20.10;36.20
45339;DHT22;31071;51.478;5.710;2023-04-03T13:39:30;20.20;34.30
45339;DHT22;31071;51.478;5.710;2023-04-03T13:42:01;20.30;34.10
45339;DHT22;31071;51.478;5.710;2023-04-03T13:44:31;20.00;34.20
45339;DHT22;31071;51.478;5.710;2023-04-03T13:47:22;20.00;34.10
45339;DHT22;31071;51.478;5.710;2023-04-03T13:50:17;20.20;33.70
45339;DHT22;31071;51.478;5.710;2023-04-03T13:52:55;20.10;34.50
45339;DHT22;31071;51.478;5.710;2023-04-03T13:55:30;20.40;34.90
45339;DHT22;31071;51.478;5.710;2023-04-03T13:58:00;20.60;33.80
45339;DHT22;31071;51.478;5.710;2023-04-03T14:03:31;18.80;35.70
45339;DHT22;31071;51.478;5.710;2023-04-03T14:05:57;18.50;35.60
45339;DHT22;31071;51.478;5.710;2023-04-03T14:08:23;18.30;34.30
45339;DHT22;31071;51.478;5.710;2023-04-03T14:10:49;18.10;35.10
45339;DHT22;31071;51.478;5.710;2023-04-03T14:13:18;18.70;36.10
45339;DHT22;31071;51.478;5.710;2023-04-03T14:15:46;19.30;35.40
45339;DHT22;31071;51.478;5.710;2023-04-03T14:18:15;18.60;36.20
45339;DHT22;31071;51.478;5.710;2023-04-03T14:20:41;18.60;35.30
45339;DHT22;31071;51.478;5.710;2023-04-03T14:23:08;18.30;36.00
45339;DHT22;31071;51.478;5.710;2023-04-03T14:25:34;18.00;35.40
45339;DHT22;31071;51.478;5.710;2023-04-03T14:28:00;18.20;36.30
45339;DHT22;31071;51.478;5.710;2023-04-03T14:30:30;16.90;37.20
45339;DHT22;31071;51.478;5.710;2023-04-03T14:32:56;17.00;37.90
45339;DHT22;31071;51.478;5.710;2023-04-03T14:35:22;16.80;37.10
45339;DHT22;31071;51.478;5.710;2023-04-03T14:37:49;16.80;37.40
45339;DHT22;31071;51.478;5.710;2023-04-03T14:40:22;16.90;37.50
45339;DHT22;31071;51.478;5.710;2023-04-03T14:42:48;16.90;36.90
45339;DHT22;31071;51.478;5.710;2023-04-03T14:45:15;17.20;37.80
45339;DHT22;31071;51.478;5.710;2023-04-03T14:47:45;16.50;38.40
45339;DHT22;31071;51.478;5.710;2023-04-03T14:50:19;16.40;39.50
45339;DHT22;31071;51.478;5.710;2023-04-03T14:52:47;16.30;38.60
45339;DHT22;31071;51.478;5.710;2023-04-03T14:55:15;16.00;38.80
45339;DHT22;31071;51.478;5.710;2023-04-03T14:57:41;15.90;39.00
45339;DHT22;31071;51.478;5.710;2023-04-03T15:00:18;15.30;40.50
45339;DHT22;31071;51.478;5.710;2023-04-03T15:02:44;14.50;39.90
45339;DHT22;31071;51.478;5.710;2023-04-03T15:05:10;14.00;41.60
45339;DHT22;31071;51.478;5.710;2023-04-03T15:07:48;13.80;43.10
45339;DHT22;31071;51.478;5.710;2023-04-03T15:10:19;13.80;43.60
45339;DHT22;31071;51.478;5.710;2023-04-03T15:12:46;13.50;42.40
45339;DHT22;31071;51.478;5.710;2023-04-03T15:15:12;13.30;44.40
45339;DHT22;31071;51.478;5.710;2023-04-03T15:17:38;13.90;47.10
45339;DHT22;31071;51.478;5.710;2023-04-03T15:20:12;13.50;43.80
45339;DHT22;31071;51.478;5.710;2023-04-03T15:22:38;13.00;44.20
45339;DHT22;31071;51.478;5.710;2023-04-03T15:25:06;12.90;46.30
45339;DHT22;31071;51.478;5.710;2023-04-03T15:27:31;13.10;46.70
45339;DHT22;31071;51.478;5.710;2023-04-03T15:30:19;13.30;45.50
45339;DHT22;31071;51.478;5.710;2023-04-03T15:32:54;12.90;45.80
45339;DHT22;31071;51.478;5.710;2023-04-03T15:35:23;12.80;45.80
45339;DHT22;31071;51.478;5.710;2023-04-03T15:37:49;12.80;47.70
45339;DHT22;31071;51.478;5.710;2023-04-03T15:40:14;14.00;46.70
45339;DHT22;31071;51.478;5.710;2023-04-03T15:42:40;12.50;46.70
45339;DHT22;31071;51.478;5.710;2023-04-03T15:45:07;14.20;47.20
45339;DHT22;31071;51.478;5.710;2023-04-03T15:47:33;12.50;48.30
45339;DHT22;31071;51.478;5.710;2023-04-03T15:49:58;13.00;45.90
45339;DHT22;31071;51.478;5.710;2023-04-03T15:52:24;12.40;45.20
45339;DHT22;31071;51.478;5.710;2023-04-03T15:54:50;13.40;46.90
45339;DHT22;31071;51.478;5.710;2023-04-03T15:57:16;13.40;46.80
45339;DHT22;31071;51.478;5.710;2023-04-03T15:59:41;11.40;47.70
45339;DHT22;31071;51.478;5.710;2023-04-03T16:02:10;12.40;47.70
45339;DHT22;31071;51.478;5.710;2023-04-03T16:04:37;12.70;47.10
45339;DHT22;31071;51.478;5.710;2023-04-03T16:07:03;11.90;48.20
45339;DHT22;31071;51.478;5.710;2023-04-03T16:09:30;13.00;49.00
45339;DHT22;31071;51.478;5.710;2023-04-03T16:11:57;12.70;47.80
45339;DHT22;31071;51.478;5.710;2023-04-03T16:14:22;11.80;48.70
45339;DHT22;31071;51.478;5.710;2023-04-03T16:16:48;11.90;46.60
45339;DHT22;31071;51.478;5.710;2023-04-03T16:19:14;11.80;47.90
45339;DHT22;31071;51.478;5.710;2023-04-03T16:21:39;12.20;49.30
45339;DHT22;31071;51.478;5.710;2023-04-03T16:24:05;12.70;49.00
45339;DHT22;31071;51.478;5.710;2023-04-03T16:26:31;12.60;49.40
45339;DHT22;31071;51.478;5.710;2023-04-03T16:28:57;11.50;47.80
45339;DHT22;31071;51.478;5.710;2023-04-03T16:31:23;11.40;47.80
45339;DHT22;31071;51.478;5.710;2023-04-03T16:33:49;11.50;48.00
45339;DHT22;31071;51.478;5.710;2023-04-03T16:36:15;11.50;49.90
45339;DHT22;31071;51.478;5.710;2023-04-03T16:38:41;11.30;49.10
45339;DHT22;31071;51.478;5.710;2023-04-03T16:41:06;11.10;50.80
45339;DHT22;31071;51.478;5.710;2023-04-03T16:43:33;11.20;49.60
45339;DHT22;31071;51.478;5.710;2023-04-03T16:45:58;11.00;50.20
45339;DHT22;31071;51.478;5.710;2023-04-03T16:48:24;11.00;50.20
45339;DHT22;31071;51.478;5.710;2023-04-03T16:50:50;10.80;49.60
45339;DHT22;31071;51.478;5.710;2023-04-03T16:53:22;10.90;51.10
45339;DHT22;31071;51.478;5.710;2023-04-03T16:55:48;10.80;51.30
45339;DHT22;31071;51.478;5.710;2023-04-03T16:58:13;10.90;51.60
45339;DHT22;31071;51.478;5.710;2023-04-03T17:00:40;10.90;51.30
45339;DHT22;31071;51.478;5.710;2023-04-03T17:03:05;10.90;52.60
45339;DHT22;31071;51.478;5.710;2023-04-03T17:05:31;10.80;51.30
45339;DHT22;31071;51.478;5.710;2023-04-03T17:07:57;10.60;52.50
45339;DHT22;31071;51.478;5.710;2023-04-03T17:10:23;10.60;52.20
45339;DHT22;31071;51.478;5.710;2023-04-03T18:06:04;8.80;60.00
45339;DHT22;31071;51.478;5.710;2023-04-03T18:08:34;8.70;58.60
45339;DHT22;31071;51.478;5.710;2023-04-03T18:11:00;9.00;59.70